Time;durP1;ratioP1;P1;durP2;ratioP2;P2;SDS_P1;SDS_P2;PMS_P1;PMS_P2;Temp;Humidity;BMP_temperature;BMP_pressure;BME280_temperature;BME280_humidity;BME280_pressure;Samples;Min_cycle;Max_cycle;Signal;HPM_P1;HPM_P2
2023/10/20 00:00:18;;;;;;;7.60;5.13;;;;;;;12.74;100.00;100709.88;2089010;28;20505;-69
2023/10/20 00:01:19;;;;;;;5.70;4.53;;;;;;;12.75;100.00;100709.44;2077944;28;20211;-69
2023/10/20 00:02:19;;;;;;;6.90;4.70;;;;;;;12.76;100.00;100693.53;2072217;28;20519;-69
2023/10/20 00:03:19;;;;;;;11.33;4.87;;;;;;;12.75;100.00;100687.19;2089849;28;20180;-68
2023/10/20 00:04:20;;;;;;;8.27;4.83;;;;;;;12.70;100.00;100675.84;2072699;28;20209;-69
2023/10/20 00:05:20;;;;;;;7.27;4.83;;;;;;;12.72;100.00;100682.53;2078345;28;20570;-69
2023/10/20 00:06:21;;;;;;;7.57;5.20;;;;;;;12.71;100.00;100688.53;2088774;28;20660;-69
2023/10/20 00:07:21;;;;;;;6.27;4.87;;;;;;;12.69;100.00;100683.41;2088147;28;20198;-70
2023/10/20 00:08:22;;;;;;;7.93;5.00;;;;;;;12.72;100.00;100687.28;2088495;28;20745;-69
2023/10/20 00:09:22;;;;;;;6.70;4.43;;;;;;;12.64;100.00;100689.53;2088830;28;20226;-69
2023/10/20 00:10:23;;;;;;;10.50;4.47;;;;;;;12.48;100.00;100664.63;2088698;28;20283;-69
2023/10/20 00:11:25;;;;;;;7.10;4.57;;;;;;;12.65;100.00;100691.06;2080871;28;20212;-69
2023/10/20 00:12:26;;;;;;;8.57;4.97;;;;;;;12.66;100.00;100684.28;2080021;28;20284;-69
2023/10/20 00:13:26;;;;;;;8.20;4.97;;;;;;;12.65;100.00;100679.94;2087123;28;20450;-69
2023/10/20 00:14:27;;;;;;;9.67;5.33;;;;;;;12.65;100.00;100681.97;2088914;28;20571;-69
2023/10/20 00:15:28;;;;;;;11.67;5.13;;;;;;;12.64;100.00;100681.19;2088677;28;20673;-69
2023/10/20 00:16:29;;;;;;;13.63;5.10;;;;;;;12.33;100.00;100640.47;2088775;28;20552;-69
2023/10/20 00:17:29;;;;;;;6.57;4.50;;;;;;;12.53;100.00;100688.28;2088110;28;20427;-69
2023/10/20 00:18:30;;;;;;;6.57;4.40;;;;;;;12.54;100.00;100687.84;2088709;28;20927;-69
2023/10/20 00:19:31;;;;;;;6.43;4.13;;;;;;;12.31;100.00;100667.94;2089413;28;20651;-69
2023/10/20 00:20:32;;;;;;;6.20;4.47;;;;;;;12.29;100.00;100651.69;2088924;28;20847;-69
2023/10/20 00:21:32;;;;;;;6.80;4.40;;;;;;;12.39;100.00;100677.59;2088605;28;20271;-69
2023/10/20 00:22:33;;;;;;;7.67;4.33;;;;;;;12.39;100.00;100681.16;2088847;28;20281;-69
2023/10/20 00:23:33;;;;;;;7.03;4.27;;;;;;;12.09;100.00;100637.22;2088684;28;20292;-69
2023/10/20 00:24:34;;;;;;;8.20;4.70;;;;;;;12.27;100.00;100658.91;2088709;28;20196;-69
2023/10/20 00:25:34;;;;;;;7.20;4.60;;;;;;;12.46;100.00;100682.94;2088716;28;20285;-69
2023/10/20 00:26:35;;;;;;;8.50;4.80;;;;;;;12.47;100.00;100679.75;2088687;28;20296;-70
2023/10/20 00:27:35;;;;;;;6.87;4.43;;;;;;;12.41;100.00;100667.59;2088855;28;20178;-69
2023/10/20 00:28:36;;;;;;;7.50;4.70;;;;;;;12.45;100.00;100676.59;2079676;28;20229;-69
2023/10/20 00:29:36;;;;;;;7.33;4.63;;;;;;;12.45;100.00;100673.06;2080024;28;20186;-69
2023/10/20 00:30:39;;;;;;;6.00;4.10;;;;;;;12.25;100.00;100648.25;2085809;28;20569;-69
2023/10/20 00:31:39;;;;;;;6.53;4.33;;;;;;;12.43;100.00;100678.25;2075458;28;20248;-69
2023/10/20 00:32:40;;;;;;;9.87;4.77;;;;;;;12.02;100.00;100614.44;2075225;28;20537;-69
2023/10/20 00:33:41;;;;;;;6.63;4.27;;;;;;;12.33;100.00;100669.03;2087470;28;20226;-69
2023/10/20 00:34:41;;;;;;;7.47;4.40;;;;;;;12.24;100.00;100657.81;2088510;28;20293;-69
2023/10/20 00:35:41;;;;;;;11.07;5.37;;;;;;;12.30;100.00;100669.16;2089512;28;20185;-69
2023/10/20 00:36:42;;;;;;;7.33;4.67;;;;;;;12.33;100.00;100674.59;2088437;28;20184;-69
2023/10/20 00:37:42;;;;;;;8.17;5.07;;;;;;;12.21;100.00;100661.47;2088092;28;20509;-69
2023/10/20 00:38:43;;;;;;;8.90;5.10;;;;;;;12.33;100.00;100671.03;2088562;28;20199;-69
2023/10/20 00:39:43;;;;;;;8.90;5.00;;;;;;;12.32;100.00;100673.06;2088765;28;20295;-69
2023/10/20 00:40:48;;;;;;;8.47;4.97;;;;;;;12.31;100.00;100676.25;2088495;28;20201;-69
2023/10/20 00:41:49;;;;;;;7.93;4.43;;;;;;;12.22;100.00;100663.03;2088718;28;20183;-69
2023/10/20 00:42:50;;;;;;;6.23;4.60;;;;;;;12.05;100.00;100630.22;2088229;28;20430;-69
2023/10/20 00:43:50;;;;;;;7.33;4.60;;;;;;;12.28;100.00;100663.25;2088640;28;20184;-69
2023/10/20 00:44:51;;;;;;;7.67;4.83;;;;;;;11.78;100.00;100591.72;2089298;28;20201;-68
2023/10/20 00:45:52;;;;;;;7.93;4.73;;;;;;;12.28;100.00;100674.34;2088761;28;20193;-69
2023/10/20 00:46:53;;;;;;;7.57;4.73;;;;;;;12.27;100.00;100665.25;2088270;28;20475;-69
2023/10/20 00:47:53;;;;;;;7.77;4.90;;;;;;;12.23;100.00;100661.81;2088089;28;20188;-69
2023/10/20 00:48:54;;;;;;;8.10;4.43;;;;;;;12.25;100.00;100666.94;2088612;28;20284;-69
2023/10/20 00:49:55;;;;;;;7.23;4.70;;;;;;;12.25;100.00;100670.47;2088448;28;20237;-69
2023/10/20 00:50:55;;;;;;;6.63;4.67;;;;;;;12.24;100.00;100662.59;2088370;28;20205;-69
2023/10/20 00:51:56;;;;;;;7.23;4.50;;;;;;;11.77;100.00;100592.16;2088531;28;20422;-69
2023/10/20 00:52:57;;;;;;;7.83;4.70;;;;;;;12.23;100.00;100666.56;2089345;28;20179;-69
2023/10/20 00:54:00;;;;;;;7.30;4.90;;;;;;;12.22;100.00;100670.56;2088819;28;20214;-69
2023/10/20 00:55:00;;;;;;;7.43;4.60;;;;;;;12.21;100.00;100658.69;2088517;28;20201;-69
2023/10/20 00:56:04;;;;;;;7.17;4.60;;;;;;;12.21;100.00;100655.94;2088464;28;20513;-69
2023/10/20 00:57:04;;;;;;;8.87;4.83;;;;;;;12.20;100.00;100659.13;2088040;28;20559;-69
2023/10/20 00:58:06;;;;;;;5.37;4.20;;;;;;;12.18;100.00;100658.78;2088368;28;20462;-69
2023/10/20 00:59:06;;;;;;;6.37;4.57;;;;;;;12.17;100.00;100658.03;2088176;28;20580;-69
2023/10/20 01:00:09;;;;;;;9.50;4.77;;;;;;;12.10;100.00;100649.88;2088363;28;20423;-69
2023/10/20 01:01:09;;;;;;;7.73;5.13;;;;;;;12.13;100.00;100654.56;2088271;28;20185;-69
2023/10/20 01:02:12;;;;;;;8.07;4.73;;;;;;;12.09;100.00;100647.56;2089370;28;20440;-69
2023/10/20 01:03:12;;;;;;;5.70;4.10;;;;;;;12.07;100.00;100659.13;2088475;28;20291;-69
2023/10/20 01:04:13;;;;;;;7.50;4.93;;;;;;;12.04;100.00;100642.56;2088607;28;20959;-69
2023/10/20 01:05:22;;;;;;;7.10;4.70;;;;;;;12.05;100.00;100653.19;2088332;28;20197;-69
2023/10/20 01:06:22;;;;;;;7.30;4.70;;;;;;;12.03;100.00;100643.75;2088420;28;20750;-69
2023/10/20 01:07:24;;;;;;;5.90;4.07;;;;;;;11.98;100.00;100639.53;2087859;28;20975;-69
2023/10/20 01:08:24;;;;;;;6.20;4.33;;;;;;;12.00;100.00;100647.44;2087973;28;20200;-71
2023/10/20 01:09:26;;;;;;;7.73;4.37;;;;;;;12.02;100.00;100642.19;2088460;28;20422;-69
2023/10/20 01:10:26;;;;;;;10.13;4.67;;;;;;;12.01;100.00;100635.09;2088347;28;20185;-70
2023/10/20 01:11:27;;;;;;;7.83;4.47;;;;;;;12.00;100.00;100634.31;2089153;28;20503;-70
2023/10/20 01:12:27;;;;;;;8.73;5.23;;;;;;;12.01;100.00;100637.88;2088551;28;20215;-69
2023/10/20 01:13:28;;;;;;;6.33;4.63;;;;;;;12.01;100.00;100638.66;2087151;28;20722;-69
2023/10/20 01:14:28;;;;;;;6.33;3.97;;;;;;;11.55;100.00;100563.44;2088375;28;20188;-70
2023/10/20 01:15:29;;;;;;;8.00;4.43;;;;;;;12.01;100.00;100638.66;2088184;28;20590;-70
2023/10/20 01:16:29;;;;;;;7.90;4.87;;;;;;;12.02;100.00;100633.88;2088413;28;20645;-70
2023/10/20 01:17:30;;;;;;;9.07;4.50;;;;;;;12.03;100.00;100641.75;2087732;28;20199;-70
2023/10/20 01:18:31;;;;;;;6.40;4.23;;;;;;;11.64;100.00;100580.25;2088237;28;20183;-70
2023/10/20 01:19:32;;;;;;;8.13;4.83;;;;;;;11.98;100.00;100625.66;2088921;28;20250;-70
2023/10/20 01:20:33;;;;;;;5.83;4.20;;;;;;;12.02;100.00;100631.09;2088318;28;20528;-69
2023/10/20 01:21:33;;;;;;;6.30;4.63;;;;;;;12.02;100.00;100631.09;2088274;28;20220;-69
2023/10/20 01:22:34;;;;;;;7.23;4.30;;;;;;;11.98;100.00;100625.66;2088409;28;20215;-69
2023/10/20 01:23:35;;;;;;;7.13;4.17;;;;;;;11.99;100.00;100632.00;2088462;28;20928;-70
2023/10/20 01:24:36;;;;;;;6.77;4.50;;;;;;;11.98;100.00;100633.97;2088282;28;20195;-70
2023/10/20 01:25:37;;;;;;;6.23;4.30;;;;;;;11.92;100.00;100627.41;2088108;28;20423;-69
2023/10/20 01:26:37;;;;;;;8.60;4.03;;;;;;;11.94;100.00;100630.53;2088213;28;20482;-70
2023/10/20 01:27:38;;;;;;;7.90;4.63;;;;;;;11.88;100.00;100632.28;2088524;28;20660;-70
2023/10/20 01:28:38;;;;;;;7.07;4.23;;;;;;;11.89;100.00;100642.16;2088193;28;20204;-69
2023/10/20 01:29:38;;;;;;;6.00;4.17;;;;;;;11.89;100.00;100638.63;2088529;28;20201;-69
2023/10/20 01:30:39;;;;;;;6.30;4.13;;;;;;;11.39;100.00;100567.06;2088356;28;20188;-69
2023/10/20 01:31:39;;;;;;;5.73;4.10;;;;;;;11.82;100.00;100636.03;2088454;28;20248;-69
2023/10/20 01:32:41;;;;;;;6.17;3.80;;;;;;;11.82;100.00;100638.81;2088030;28;20190;-70
2023/10/20 01:33:43;;;;;;;7.53;4.37;;;;;;;11.79;100.00;100636.94;2087409;28;20226;-70
2023/10/20 01:34:44;;;;;;;7.10;4.40;;;;;;;11.75;100.00;100631.50;2087206;28;20479;-69
2023/10/20 01:35:46;;;;;;;8.20;4.20;;;;;;;11.68;100.00;100626.13;2086676;28;20477;-69
2023/10/20 01:36:46;;;;;;;6.47;4.30;;;;;;;11.54;100.00;100632.03;2088659;28;20427;-69
2023/10/20 01:37:47;;;;;;;7.83;5.10;;;;;;;11.57;100.00;100644.25;2087868;28;20475;-69
2023/10/20 01:38:47;;;;;;;8.40;4.80;;;;;;;11.57;100.00;100650.59;2088035;28;20222;-69
2023/10/20 01:39:48;;;;;;;6.97;4.50;;;;;;;11.58;100.00;100640.28;2088170;28;20209;-70
2023/10/20 01:40:49;;;;;;;8.07;4.57;;;;;;;11.51;100.00;100646.00;2088016;28;20608;-69
2023/10/20 01:41:49;;;;;;;6.67;4.17;;;;;;;11.43;100.00;100647.44;2088451;28;20183;-72
2023/10/20 01:42:50;;;;;;;10.57;5.23;;;;;;;11.45;100.00;100650.53;2088013;28;20184;-72
2023/10/20 01:43:50;;;;;;;6.23;4.20;;;;;;;11.23;100.00;100633.66;2088298;28;20211;-70
2023/10/20 01:44:50;;;;;;;8.03;4.57;;;;;;;11.50;100.00;100659.13;2089017;28;20176;-72
2023/10/20 01:45:51;;;;;;;6.57;4.33;;;;;;;11.52;100.00;100658.69;2088214;28;20196;-72
2023/10/20 01:46:51;;;;;;;8.43;4.50;;;;;;;11.32;100.00;100633.84;2087783;28;20261;-72
2023/10/20 01:47:52;;;;;;;8.27;4.70;;;;;;;11.37;100.00;100644.41;2087146;28;20226;-70
2023/10/20 01:48:52;;;;;;;6.83;4.40;;;;;;;11.45;100.00;100662.44;2087394;28;20206;-72
2023/10/20 01:49:53;;;;;;;7.27;4.03;;;;;;;10.82;100.00;100571.78;2088424;28;20184;-72
2023/10/20 01:50:53;;;;;;;8.03;3.93;;;;;;;11.46;100.00;100669.53;2088052;28;20194;-72
2023/10/20 01:51:54;;;;;;;6.17;4.10;;;;;;;11.46;100.00;100666.75;2089357;28;20556;-72
2023/10/20 01:52:54;;;;;;;6.77;3.90;;;;;;;11.15;100.00;100614.88;2095339;28;20199;-71
2023/10/20 01:53:55;;;;;;;9.67;4.30;;;;;;;11.48;100.00;100661.53;2073368;28;20205;-71
2023/10/20 01:54:57;;;;;;;7.90;4.93;;;;;;;11.49;100.00;100665.09;2076962;28;20207;-71
2023/10/20 01:55:57;;;;;;;6.43;4.60;;;;;;;11.50;100.00;100648.03;2088275;28;20712;-72
2023/10/20 01:56:58;;;;;;;10.50;4.63;;;;;;;11.01;100.00;100577.22;2087910;28;21129;-72
2023/10/20 01:57:58;;;;;;;7.43;4.60;;;;;;;11.54;100.00;100659.03;2087642;28;20537;-72
2023/10/20 01:58:59;;;;;;;7.20;4.57;;;;;;;11.53;100.00;100658.22;2087809;28;20180;-71
2023/10/20 02:00:01;;;;;;;7.43;3.80;;;;;;;11.52;100.00;100647.59;2088194;28;20184;-71
2023/10/20 02:01:02;;;;;;;8.07;5.10;;;;;;;11.41;100.00;100649.84;2088889;28;20574;-72
2023/10/20 02:02:04;;;;;;;5.80;3.90;;;;;;;11.38;100.00;100650.75;2087913;28;20464;-72
2023/10/20 02:03:04;;;;;;;6.10;4.57;;;;;;;11.49;100.00;100656.78;2088285;28;20241;-72
2023/10/20 02:04:05;;;;;;;6.73;4.43;;;;;;;11.52;100.00;100642.03;2088361;28;20534;-72
2023/10/20 02:05:08;;;;;;;6.87;4.00;;;;;;;11.40;100.00;100634.41;2088250;28;20196;-72
2023/10/20 02:06:09;;;;;;;10.30;4.67;;;;;;;11.36;100.00;100648.41;2087709;28;20615;-72
2023/10/20 02:07:10;;;;;;;6.03;3.87;;;;;;;11.31;100.00;100660.03;2086582;28;20893;-71
2023/10/20 02:08:10;;;;;;;5.03;3.80;;;;;;;11.05;100.00;100613.16;2087900;28;20506;-72
2023/10/20 02:09:11;;;;;;;7.23;4.07;;;;;;;11.44;100.00;100654.53;2089065;28;20203;-71
2023/10/20 02:10:11;;;;;;;5.57;4.23;;;;;;;11.42;100.00;100660.50;2087837;28;20196;-71
2023/10/20 02:11:12;;;;;;;7.33;4.60;;;;;;;11.27;100.00;100651.00;2088081;28;20216;-71
2023/10/20 02:12:13;;;;;;;6.07;3.93;;;;;;;11.34;100.00;100661.16;2088168;28;20646;-71
2023/10/20 02:13:13;;;;;;;5.80;4.07;;;;;;;11.44;100.00;100665.63;2085772;28;20196;-70
2023/10/20 02:14:14;;;;;;;8.80;4.53;;;;;;;11.45;100.00;100661.63;2088170;28;20458;-69
2023/10/20 02:15:14;;;;;;;6.90;4.10;;;;;;;11.40;100.00;100651.88;2087874;28;20176;-70
2023/10/20 02:16:15;;;;;;;7.00;4.10;;;;;;;11.41;100.00;100656.19;2087795;28;20188;-69
2023/10/20 02:17:15;;;;;;;5.17;4.10;;;;;;;11.42;100.00;100663.28;2088309;28;20221;-70
2023/10/20 02:18:17;;;;;;;7.30;4.53;;;;;;;11.11;100.00;100630.81;2088019;28;20192;-69
2023/10/20 02:19:17;;;;;;;5.90;4.10;;;;;;;11.42;100.00;100657.75;2087886;28;20200;-70
2023/10/20 02:20:23;;;;;;;5.57;3.70;;;;;;;11.37;100.00;100651.97;2088093;28;20537;-69
2023/10/20 02:21:23;;;;;;;6.03;4.93;;;;;;;11.43;100.00;100647.44;2088027;28;20674;-70
2023/10/20 02:22:25;;;;;;;5.13;3.67;;;;;;;11.41;100.00;100647.06;2087968;28;20819;-69
2023/10/20 02:23:25;;;;;;;5.43;4.03;;;;;;;11.41;100.00;100656.19;2088263;28;20587;-70
2023/10/20 02:24:26;;;;;;;8.03;4.70;;;;;;;11.43;100.00;100650.22;2088071;28;20435;-70
2023/10/20 02:25:26;;;;;;;6.57;3.90;;;;;;;11.45;100.00;100645.00;2089408;28;20216;-70
2023/10/20 02:26:28;;;;;;;5.90;4.03;;;;;;;11.41;100.00;100641.53;2090623;28;20192;-70
2023/10/20 02:27:29;;;;;;;7.30;4.43;;;;;;;11.42;100.00;100643.09;2089045;28;20269;-70
2023/10/20 02:28:29;;;;;;;6.20;4.10;;;;;;;11.41;100.00;100645.09;2089546;28;20508;-69
2023/10/20 02:29:30;;;;;;;6.57;4.10;;;;;;;11.45;100.00;100656.88;2089461;28;20203;-70
2023/10/20 02:30:33;;;;;;;6.53;4.20;;;;;;;11.47;100.00;100637.78;2089727;28;20630;-70
2023/10/20 02:31:34;;;;;;;8.20;4.37;;;;;;;11.48;100.00;100636.56;2089527;28;20269;-70
2023/10/20 02:32:34;;;;;;;6.77;4.00;;;;;;;11.50;100.00;100625.03;2089451;28;20422;-70
2023/10/20 02:33:35;;;;;;;8.23;4.27;;;;;;;11.50;100.00;100625.81;2089805;28;20184;-70
2023/10/20 02:34:35;;;;;;;13.03;4.20;;;;;;;11.16;100.00;100581.16;2090231;28;20240;-70
2023/10/20 02:35:40;;;;;;;5.77;3.80;;;;;;;11.54;100.00;100625.72;2089886;28;20692;-70
2023/10/20 02:36:40;;;;;;;7.03;4.10;;;;;;;11.54;100.00;100620.94;2089253;28;20211;-70
2023/10/20 02:37:40;;;;;;;7.37;4.87;;;;;;;11.53;100.00;100618.63;2089140;28;20442;-70
2023/10/20 02:38:41;;;;;;;5.90;4.30;;;;;;;11.50;100.00;100622.25;2089314;28;20254;-69
2023/10/20 02:39:42;;;;;;;6.37;4.47;;;;;;;11.45;100.00;100631.13;2089540;28;20231;-70
2023/10/20 02:40:53;;;;;;;7.30;4.47;;;;;;;11.48;100.00;100638.56;2088885;28;20204;-70
2023/10/20 02:41:54;;;;;;;6.10;3.87;;;;;;;11.30;100.00;100605.75;2089731;28;20454;-70
2023/10/20 02:42:55;;;;;;;6.17;3.80;;;;;;;11.40;100.00;100610.25;2089409;28;20430;-70
2023/10/20 02:43:55;;;;;;;5.33;4.00;;;;;;;11.47;100.00;100615.59;2089555;28;20180;-70
2023/10/20 02:44:56;;;;;;;5.43;3.97;;;;;;;11.45;100.00;100617.25;2090281;28;20188;-70
2023/10/20 02:45:56;;;;;;;6.87;4.03;;;;;;;11.38;100.00;100615.44;2089423;28;20683;-69
2023/10/20 02:46:57;;;;;;;6.27;4.60;;;;;;;10.97;100.00;100551.56;2089163;28;20220;-70
2023/10/20 02:47:58;;;;;;;9.30;4.20;;;;;;;11.47;100.00;100612.06;2089206;28;20196;-70
2023/10/20 02:48:58;;;;;;;7.77;4.37;;;;;;;11.46;100.00;100607.69;2089513;28;20958;-70
2023/10/20 02:49:59;;;;;;;5.80;3.87;;;;;;;11.44;100.00;100610.94;2089764;28;20192;-70
2023/10/20 02:51:13;;;;;;;6.00;4.07;;;;;;;11.44;100.00;100608.16;2089309;28;20183;-70
2023/10/20 02:52:13;;;;;;;4.90;3.70;;;;;;;11.42;100.00;100604.25;2089681;28;20187;-70
2023/10/20 02:53:14;;;;;;;6.33;3.97;;;;;;;10.95;100.00;100539.34;2089458;28;20498;-70
2023/10/20 02:54:15;;;;;;;7.20;4.20;;;;;;;10.97;100.00;100556.34;2089432;28;20204;-70
2023/10/20 02:55:15;;;;;;;6.30;4.20;;;;;;;11.26;100.00;100601.50;2090310;28;20421;-70
2023/10/20 02:56:18;;;;;;;8.67;4.40;;;;;;;11.26;100.00;100601.50;2089373;28;20652;-71
2023/10/20 02:57:20;;;;;;;6.53;4.43;;;;;;;11.28;100.00;100588.75;2088964;28;20200;-71
2023/10/20 02:58:21;;;;;;;5.57;3.90;;;;;;;11.28;100.00;100588.00;2089192;28;20446;-70
2023/10/20 02:59:21;;;;;;;8.20;4.23;;;;;;;11.26;100.00;100588.44;2089192;28;20543;-70
2023/10/20 03:00:23;;;;;;;5.80;3.67;;;;;;;11.11;100.00;100570.59;2089326;28;20188;-70
2023/10/20 03:01:24;;;;;;;5.77;4.20;;;;;;;11.20;100.00;100594.94;2089409;28;20429;-70
2023/10/20 03:02:26;;;;;;;8.10;4.10;;;;;;;11.15;100.00;100596.25;2089564;28;20184;-70
2023/10/20 03:03:27;;;;;;;6.73;4.30;;;;;;;11.15;100.00;100593.47;2090284;28;20665;-70
2023/10/20 03:04:27;;;;;;;4.97;3.47;;;;;;;11.12;100.00;100594.34;2089992;28;20830;-70
2023/10/20 03:05:31;;;;;;;8.40;3.80;;;;;;;11.07;100.00;100596.88;2089207;28;20226;-70
2023/10/20 03:06:32;;;;;;;5.63;4.00;;;;;;;11.06;100.00;100600.88;2089210;28;20684;-70
2023/10/20 03:07:32;;;;;;;5.57;3.90;;;;;;;11.04;100.00;100604.09;2079765;28;20883;-70
2023/10/20 03:08:36;;;;;;;7.93;4.37;;;;;;;10.85;100.00;100577.25;2080487;28;20228;-71
2023/10/20 03:09:37;;;;;;;6.27;3.83;;;;;;;10.51;100.00;100535.34;2089403;28;20612;-70
2023/10/20 03:10:41;;;;;;;6.20;3.87;;;;;;;10.99;100.00;100614.91;2080113;28;20426;-70
2023/10/20 03:11:43;;;;;;;5.50;3.90;;;;;;;10.98;100.00;100619.69;2081146;28;20226;-72
2023/10/20 03:12:43;;;;;;;7.17;4.33;;;;;;;10.76;100.00;100582.63;2089100;28;20895;-72
2023/10/20 03:13:44;;;;;;;5.80;3.90;;;;;;;10.89;100.00;100610.41;2090262;28;20406;-71
2023/10/20 03:14:45;;;;;;;7.53;4.20;;;;;;;10.90;100.00;100623.84;2089141;28;20253;-71
2023/10/20 03:15:45;;;;;;;7.60;3.40;;;;;;;10.84;100.00;100622.81;2089350;28;20595;-71
2023/10/20 03:16:46;;;;;;;7.53;5.13;;;;;;;10.89;100.00;100629.81;2088963;28;20522;-71
2023/10/20 03:17:46;;;;;;;8.37;4.47;;;;;;;10.85;100.00;100618.81;2088941;28;20203;-71
2023/10/20 03:18:47;;;;;;;8.17;4.90;;;;;;;10.71;100.00;100616.41;2089050;28;20564;-71
2023/10/20 03:19:49;;;;;;;6.67;4.27;;;;;;;10.77;100.00;100639.59;2089036;28;20266;-71
2023/10/20 03:20:50;;;;;;;6.20;4.30;;;;;;;10.79;100.00;100637.19;2089148;28;20419;-70
2023/10/20 03:21:52;;;;;;;7.70;4.73;;;;;;;10.79;100.00;100630.84;2090148;28;20425;-69
2023/10/20 03:22:52;;;;;;;6.57;4.67;;;;;;;10.80;100.00;100635.97;2088621;28;20442;-69
2023/10/20 03:23:53;;;;;;;10.43;5.33;;;;;;;10.80;100.00;100633.19;2089347;28;20545;-69
2023/10/20 03:24:54;;;;;;;6.27;4.17;;;;;;;10.79;100.00;100633.63;2087715;28;20207;-69
2023/10/20 03:25:55;;;;;;;6.57;4.43;;;;;;;10.80;100.00;100643.50;2089041;28;20317;-69
2023/10/20 03:26:55;;;;;;;7.87;4.20;;;;;;;10.78;100.00;100624.56;2088811;28;20474;-71
2023/10/20 03:27:56;;;;;;;6.43;4.30;;;;;;;10.72;100.00;100629.03;2088572;28;20458;-71
2023/10/20 03:28:56;;;;;;;8.13;4.00;;;;;;;10.66;100.00;100630.00;2089131;28;20263;-71
2023/10/20 03:29:57;;;;;;;6.87;3.93;;;;;;;10.71;100.00;100624.72;2090188;28;20206;-71
2023/10/20 03:30:57;;;;;;;7.27;4.10;;;;;;;10.68;100.00;100622.03;2089357;28;20273;-71
2023/10/20 03:31:58;;;;;;;8.10;4.43;;;;;;;10.65;100.00;100628.44;2089341;28;20192;-71
2023/10/20 03:32:58;;;;;;;6.90;4.50;;;;;;;10.58;100.00;100626.63;2089213;28;20200;-71
2023/10/20 03:33:58;;;;;;;5.83;4.67;;;;;;;10.64;100.00;100635.97;2088782;28;20223;-71
2023/10/20 03:34:59;;;;;;;6.83;4.17;;;;;;;10.58;100.00;100620.28;2088986;28;20196;-71
2023/10/20 03:36:01;;;;;;;6.03;3.27;;;;;;;10.68;100.00;100644.19;2088905;28;20212;-71
2023/10/20 03:37:02;;;;;;;5.43;3.90;;;;;;;10.60;100.00;100629.72;2087893;28;20253;-71
2023/10/20 03:38:04;;;;;;;6.73;4.13;;;;;;;10.46;100.00;100598.81;2089952;28;20419;-71
2023/10/20 03:39:19;;;;;;;8.70;4.50;;;;;;;10.64;100.00;100630.44;2088984;28;20446;-71
2023/10/20 03:40:24;;;;;;;7.67;4.53;;;;;;;10.74;100.00;100631.38;2084960;28;20827;-71
2023/10/20 03:41:25;;;;;;;7.03;4.63;;;;;;;10.24;100.00;100556.97;2089265;28;20554;-71
2023/10/20 03:42:25;;;;;;;6.60;4.47;;;;;;;10.75;100.00;100633.72;2089076;28;20532;-71
2023/10/20 03:43:27;;;;;;;7.23;4.17;;;;;;;10.78;100.00;100626.53;2088863;28;20661;-71
2023/10/20 03:44:28;;;;;;;9.60;4.63;;;;;;;10.79;100.00;100628.09;2089275;28;20198;-71
2023/10/20 03:45:28;;;;;;;5.13;3.97;;;;;;;10.64;100.00;100616.56;2088360;28;20532;-71
2023/10/20 03:46:30;;;;;;;5.50;3.63;;;;;;;10.75;100.00;100630.94;2089071;28;20183;-71
2023/10/20 03:47:34;;;;;;;7.10;4.57;;;;;;;10.76;100.00;100638.06;2088245;28;20192;-71
2023/10/20 03:48:35;;;;;;;8.10;4.47;;;;;;;10.73;100.00;100627.06;2088794;28;20928;-71
2023/10/20 03:49:35;;;;;;;7.40;4.27;;;;;;;10.76;100.00;100626.97;2089863;28;20850;-71
2023/10/20 03:50:38;;;;;;;6.10;4.13;;;;;;;10.74;100.00;100621.09;2089019;28;20228;-71
2023/10/20 03:51:43;;;;;;;9.93;4.23;;;;;;;10.79;100.00;100626.09;2089063;28;20184;-72
2023/10/20 03:52:46;;;;;;;9.23;4.87;;;;;;;10.63;100.00;100601.16;2088838;28;20438;-71
2023/10/20 03:53:47;;;;;;;6.67;4.67;;;;;;;10.81;100.00;100620.13;2089102;28;20450;-72
2023/10/20 03:54:48;;;;;;;6.50;4.50;;;;;;;10.80;100.00;100619.34;2088050;28;20449;-69
2023/10/20 03:56:00;;;;;;;5.97;4.33;;;;;;;10.81;100.00;100622.91;2084229;28;20497;-69
2023/10/20 03:57:00;;;;;;;8.63;3.63;;;;;;;10.61;100.00;100583.41;2082231;28;20725;-66
2023/10/20 03:58:02;;;;;;;3.87;2.67;;;;;;;12.30;100.00;100633.78;2088495;28;20427;-62
2023/10/20 03:59:03;;;;;;;2.73;1.97;;;;;;;13.26;100.00;100632.25;2088266;28;20219;-62
2023/10/20 04:00:15;;;;;;;3.63;2.67;;;;;;;13.70;100.00;100614.38;2088682;28;20960;-61
2023/10/20 04:01:17;;;;;;;7.03;3.47;;;;;;;13.99;100.00;100626.78;2081301;28;20170;-61
2023/10/20 04:02:18;;;;;;;8.03;4.43;;;;;;;13.86;100.00;100628.09;2089595;28;20925;-66
2023/10/20 04:03:18;;;;;;;14.37;4.73;;;;;;;13.62;100.00;100619.44;2088930;28;20199;-68
2023/10/20 04:04:19;;;;;;;6.13;4.37;;;;;;;13.42;100.00;100618.19;2087698;28;20630;-65
2023/10/20 04:05:19;;;;;;;5.20;3.97;;;;;;;13.26;100.00;100618.34;2088789;28;20224;-68
2023/10/20 04:06:20;;;;;;;6.90;4.17;;;;;;;13.12;100.00;100625.19;2088581;28;20189;-64
2023/10/20 04:07:20;;;;;;;9.27;4.53;;;;;;;13.01;100.00;100612.88;2088009;28;20228;-65
2023/10/20 04:08:22;;;;;;;7.93;4.43;;;;;;;12.82;100.00;100597.94;2088852;28;20238;-65
2023/10/20 04:09:23;;;;;;;10.97;4.20;;;;;;;12.78;100.00;100605.66;2088486;28;20188;-65
2023/10/20 04:10:23;;;;;;;6.83;4.63;;;;;;;12.69;100.00;100605.56;2089572;28;20914;-66
2023/10/20 04:11:24;;;;;;;7.50;4.57;;;;;;;12.62;100.00;100605.00;2088862;28;20195;-66
2023/10/20 04:12:27;;;;;;;6.27;4.10;;;;;;;12.53;100.00;100597.34;2086064;28;20678;-65
2023/10/20 04:13:32;;;;;;;5.37;3.80;;;;;;;12.37;100.00;100569.69;2087750;28;20691;-68
2023/10/20 04:14:34;;;;;;;10.67;5.07;;;;;;;12.32;100.00;100581.34;2088879;28;20940;-66
2023/10/20 04:15:36;;;;;;;10.67;4.93;;;;;;;12.31;100.00;100590.91;2088654;28;20518;-67
2023/10/20 04:16:39;;;;;;;8.20;4.63;;;;;;;12.27;100.00;100593.03;2088423;28;20476;-67
2023/10/20 04:17:43;;;;;;;7.30;4.13;;;;;;;12.22;100.00;100595.56;2088127;28;20800;-67
2023/10/20 04:18:44;;;;;;;7.53;4.87;;;;;;;12.17;100.00;100602.47;2088291;28;20417;-68
2023/10/20 04:19:45;;;;;;;7.73;5.00;;;;;;;12.09;100.00;100595.56;2088813;28;20444;-68
2023/10/20 04:20:48;;;;;;;8.97;4.10;;;;;;;11.92;100.00;100580.22;2092740;28;20178;-68
2023/10/20 04:21:48;;;;;;;9.77;4.80;;;;;;;12.04;100.00;100601.66;2089596;28;20424;-66
2023/10/20 04:22:49;;;;;;;7.53;5.10;;;;;;;11.98;100.00;100594.31;2088648;28;20979;-66
2023/10/20 04:23:49;;;;;;;8.50;4.33;;;;;;;12.03;100.00;100597.31;2089241;28;20227;-69
2023/10/20 04:24:50;;;;;;;8.70;4.97;;;;;;;12.01;100.00;100599.00;2087479;28;20655;-66
2023/10/20 04:25:53;;;;;;;12.20;4.60;;;;;;;11.98;100.00;100600.66;2088447;28;20588;-66
2023/10/20 04:26:55;;;;;;;7.13;4.73;;;;;;;11.94;100.00;100599.97;2088438;28;20213;-65
2023/10/20 04:28:01;;;;;;;9.93;4.73;;;;;;;11.94;100.00;100593.66;2086569;28;20433;-68
2023/10/20 04:49:28;;;;;;;18.47;6.03;;;;;;;11.38;100.00;100581.38;2087708;28;20466;-68
2023/10/20 04:53:16;;;;;;;17.67;7.77;;;;;;;11.27;100.00;100589.97;2083862;28;20541;-68
2023/10/20 04:54:23;;;;;;;14.40;5.63;;;;;;;11.18;100.00;100592.59;2085502;28;20419;-68
2023/10/20 04:56:58;;;;;;;6.77;4.47;;;;;;;10.87;100.00;100562.94;2087577;28;20468;-68
2023/10/20 04:58:13;;;;;;;8.70;5.20;;;;;;;11.07;100.00;100594.88;2086303;28;20411;-66
2023/10/20 04:59:22;;;;;;;7.33;5.00;;;;;;;11.09;100.00;100594.44;2076242;28;20429;-66
2023/10/20 05:03:46;;;;;;;8.73;5.17;;;;;;;11.04;100.00;100589.44;2086615;28;20574;-68
2023/10/20 05:04:49;;;;;;;16.57;5.87;;;;;;;10.76;100.00;100531.97;2082165;28;20195;-61
2023/10/20 05:05:58;;;;;;;14.43;8.73;;;;;;;11.06;100.00;100576.69;2074559;28;21182;-61
2023/10/20 05:07:05;;;;;;;12.57;7.50;;;;;;;11.07;100.00;100572.69;2071623;28;20909;-61
2023/10/20 05:09:15;;;;;;;17.17;7.43;;;;;;;11.26;100.00;100602.28;2082679;28;20431;-65
2023/10/20 05:10:15;;;;;;;10.47;5.80;;;;;;;11.26;100.00;100595.97;2080752;28;20451;-65
2023/10/20 05:11:16;;;;;;;12.50;5.80;;;;;;;11.27;100.00;100606.63;2067192;28;20456;-65